Time;durP1;ratioP1;P1;durP2;ratioP2;P2;SDS_P1;SDS_P2;PMS_P1;PMS_P2;Temp;Humidity;BMP_temperature;BMP_pressure;BME280_temperature;BME280_humidity;BME280_pressure;Samples;Min_cycle;Max_cycle;Signal;HPM_P1;HPM_P2
2022/11/02 00:01:19;;;;;;;10.07;3.25;;;;;;;11.36;72.76;101210.81;4149023;28;20042;-62
2022/11/02 00:03:22;;;;;;;12.75;3.95;;;;;;;11.38;72.43;101210.84;4155802;28;20045;-63
2022/11/02 00:05:27;;;;;;;7.55;2.60;;;;;;;11.40;72.48;101207.41;4159157;28;20049;-63
2022/11/02 00:07:30;;;;;;;9.55;2.80;;;;;;;11.49;71.49;101206.75;4148636;28;20114;-63
2022/11/02 00:09:33;;;;;;;10.23;2.70;;;;;;;11.45;72.12;101216.22;4148750;28;20096;-62
2022/11/02 00:11:36;;;;;;;7.00;2.28;;;;;;;11.46;71.73;101207.59;4148237;28;20038;-63
2022/11/02 00:13:39;;;;;;;9.48;2.47;;;;;;;11.45;72.00;101211.03;4149202;28;20095;-63
2022/11/02 00:15:42;;;;;;;8.88;2.60;;;;;;;11.41;72.07;101214.41;4152923;28;20495;-62
2022/11/02 00:17:47;;;;;;;8.13;2.67;;;;;;;11.41;71.99;101205.72;4158611;28;20045;-62
2022/11/02 00:19:50;;;;;;;7.18;2.17;;;;;;;11.35;72.07;101204.72;4141332;28;20484;-62
2022/11/02 00:21:55;;;;;;;10.75;3.17;;;;;;;11.55;71.38;101203.41;4147750;28;20037;-62
2022/11/02 00:23:59;;;;;;;10.48;2.50;;;;;;;11.44;71.97;101206.66;4152047;28;20038;-62
2022/11/02 00:26:02;;;;;;;8.70;2.40;;;;;;;11.40;72.17;101203.94;4153428;28;20069;-63
2022/11/02 00:28:05;;;;;;;9.85;2.55;;;;;;;11.34;72.08;101199.47;4143928;28;20038;-62
2022/11/02 00:30:10;;;;;;;6.82;3.10;;;;;;;11.31;72.50;101204.63;4158449;28;20037;-63
2022/11/02 00:32:13;;;;;;;4.88;2.35;;;;;;;11.37;71.88;101207.34;4153598;28;20049;-63
2022/11/02 00:34:16;;;;;;;9.63;2.97;;;;;;;11.33;72.03;101206.41;4144445;28;20041;-63
2022/11/02 00:36:18;;;;;;;7.80;2.55;;;;;;;11.33;72.29;101196.00;4151323;28;20478;-63
2022/11/02 00:38:23;;;;;;;7.55;2.85;;;;;;;11.42;71.44;101189.22;4153455;28;20034;-62
2022/11/02 00:40:27;;;;;;;8.45;2.67;;;;;;;11.38;71.58;101196.09;4145976;28;20083;-63
2022/11/02 00:42:30;;;;;;;8.20;2.92;;;;;;;11.33;72.40;101189.91;4146062;28;20046;-63
2022/11/02 00:44:33;;;;;;;9.20;3.17;;;;;;;11.31;72.50;101197.66;4145320;28;20419;-63
2022/11/02 00:46:36;;;;;;;9.80;3.03;;;;;;;11.29;71.94;101199.38;4154313;28;20103;-63
2022/11/02 00:48:39;;;;;;;10.57;3.38;;;;;;;11.31;72.53;101196.81;4146270;28;20459;-63
2022/11/02 00:50:42;;;;;;;9.18;2.95;;;;;;;11.31;72.44;101191.59;4145330;28;20045;-63
2022/11/02 00:52:46;;;;;;;13.75;2.60;;;;;;;11.33;72.49;101189.91;4147043;28;20492;-63
2022/11/02 00:54:50;;;;;;;10.50;3.15;;;;;;;11.30;72.68;101189.84;4131562;28;20074;-63
2022/11/02 00:56:53;;;;;;;9.98;2.67;;;;;;;11.31;72.44;101186.38;4156902;28;20095;-63
2022/11/02 00:58:57;;;;;;;14.02;3.05;;;;;;;11.28;72.92;101191.53;4153902;28;20045;-63
2022/11/02 01:01:04;;;;;;;9.55;2.75;;;;;;;11.33;72.76;101195.09;4140722;28;20042;-63
2022/11/02 01:03:07;;;;;;;12.25;2.67;;;;;;;11.35;72.65;101194.31;4138351;28;20072;-63
2022/11/02 01:05:11;;;;;;;8.57;2.47;;;;;;;11.30;71.98;101193.34;4142028;28;20080;-63
2022/11/02 01:07:16;;;;;;;11.50;2.80;;;;;;;11.26;72.91;101198.44;4171051;28;20518;-63
2022/11/02 01:09:20;;;;;;;7.53;2.58;;;;;;;11.23;72.64;101200.94;4146211;28;20084;-63
2022/11/02 01:11:24;;;;;;;8.80;2.60;;;;;;;11.29;72.29;101193.31;4130001;28;20042;-63
2022/11/02 01:13:27;;;;;;;14.15;3.92;;;;;;;11.28;72.14;101197.59;4146297;28;20038;-63
2022/11/02 01:15:30;;;;;;;16.40;2.90;;;;;;;11.26;72.51;101193.22;4144120;28;20061;-63
2022/11/02 01:17:33;;;;;;;11.00;3.25;;;;;;;11.30;72.58;101192.44;4154672;28;20050;-63
2022/11/02 01:19:39;;;;;;;6.45;2.60;;;;;;;11.25;72.85;101194.06;4145981;28;20042;-63
2022/11/02 01:21:42;;;;;;;7.63;2.83;;;;;;;11.30;73.19;101189.84;4148075;28;20038;-63
2022/11/02 01:23:45;;;;;;;13.70;3.58;;;;;;;11.30;73.06;101190.72;4135686;28;20083;-63
2022/11/02 01:25:48;;;;;;;7.97;2.75;;;;;;;11.41;72.48;101183.16;4143972;28;20037;-63
2022/11/02 01:27:52;;;;;;;7.65;3.42;;;;;;;11.36;72.60;101190.00;4154571;28;20041;-63
2022/11/02 01:29:55;;;;;;;12.88;3.53;;;;;;;11.35;72.22;101183.03;4152871;28;20088;-63
2022/11/02 01:31:58;;;;;;;9.75;2.90;;;;;;;11.37;71.94;101181.31;4142536;28;20038;-63
2022/11/02 01:34:01;;;;;;;11.30;3.55;;;;;;;11.40;72.31;101178.78;4117727;28;20046;-63
2022/11/02 01:36:05;;;;;;;7.75;2.72;;;;;;;11.41;72.31;101175.34;4148038;28;20419;-63
2022/11/02 01:38:08;;;;;;;10.43;2.97;;;;;;;11.36;72.29;101179.59;4156086;28;20073;-63
2022/11/02 01:40:11;;;;;;;7.95;2.60;;;;;;;11.31;72.19;101186.38;4144699;28;20248;-63
2022/11/02 01:42:19;;;;;;;6.80;2.60;;;;;;;11.42;71.83;101186.63;4142022;28;20510;-63
2022/11/02 01:44:29;;;;;;;7.82;2.90;;;;;;;11.33;72.63;101189.91;4141136;28;20042;-63
2022/11/02 01:46:40;;;;;;;6.32;2.70;;;;;;;11.41;72.32;101188.34;4153413;28;20048;-63
2022/11/02 01:48:47;;;;;;;10.75;2.88;;;;;;;11.38;72.11;101188.28;4153028;28;20034;-63
2022/11/02 01:50:50;;;;;;;9.60;3.25;;;;;;;11.28;72.47;101181.13;4142649;28;20030;-63
2022/11/02 01:52:54;;;;;;;8.60;3.58;;;;;;;11.32;72.35;101186.44;4134939;28;20056;-63
2022/11/02 01:55:01;;;;;;;10.13;3.17;;;;;;;11.33;73.03;101188.19;4145096;28;20096;-63
2022/11/02 01:57:08;;;;;;;9.35;2.92;;;;;;;11.41;72.30;101184.88;4132948;28;20536;-63
2022/11/02 01:59:17;;;;;;;10.35;3.50;;;;;;;11.22;73.18;101187.06;4149748;28;20040;-63
2022/11/02 02:01:22;;;;;;;10.52;2.95;;;;;;;11.32;73.29;101182.97;4157699;28;20108;-63
2022/11/02 02:03:26;;;;;;;6.38;2.40;;;;;;;11.29;72.95;101177.69;4151913;28;20129;-62
2022/11/02 02:05:32;;;;;;;11.18;3.53;;;;;;;11.25;73.40;101178.44;4142708;28;20125;-63
2022/11/02 02:07:37;;;;;;;12.82;3.75;;;;;;;11.28;73.14;101175.91;4155432;28;20091;-63
2022/11/02 02:09:41;;;;;;;9.27;3.17;;;;;;;11.30;73.45;101169.00;4151518;28;20109;-63
2022/11/02 02:11:50;;;;;;;13.40;3.35;;;;;;;11.25;73.47;101166.31;4145911;28;20089;-63
2022/11/02 02:13:55;;;;;;;9.35;2.47;;;;;;;11.23;72.94;101172.31;4139739;28;20119;-63
2022/11/02 02:16:06;;;;;;;8.75;3.15;;;;;;;11.27;73.76;101175.03;4145309;28;20378;-63
2022/11/02 02:18:16;;;;;;;13.60;3.45;;;;;;;11.28;73.79;101165.50;4175027;28;20113;-63
2022/11/02 02:20:32;;;;;;;9.68;3.17;;;;;;;11.39;73.66;101157.91;4136166;28;20042;-64
2022/11/02 02:22:53;;;;;;;10.57;3.50;;;;;;;11.29;73.29;101157.72;4141798;28;20045;-63
2022/11/02 02:25:12;;;;;;;12.77;3.72;;;;;;;11.35;72.92;101159.59;4141775;28;20053;-63
2022/11/02 02:27:20;;;;;;;13.85;2.90;;;;;;;11.32;73.64;101157.78;4156063;28;20037;-62
2022/11/02 02:29:28;;;;;;;12.48;2.85;;;;;;;11.34;73.23;101155.22;4156241;28;20442;-63
2022/11/02 02:31:36;;;;;;;11.93;3.33;;;;;;;11.30;73.69;101156.00;4145735;28;20111;-63
2022/11/02 02:33:46;;;;;;;13.35;3.08;;;;;;;11.28;74.01;101161.16;4150582;28;20056;-63
2022/11/02 02:35:54;;;;;;;10.90;2.90;;;;;;;11.37;73.27;101157.88;4140024;28;20041;-63
2022/11/02 02:38:00;;;;;;;9.90;4.60;;;;;;;11.42;73.36;101158.88;4156584;28;20064;-63
2022/11/02 02:40:13;;;;;;;11.15;3.70;;;;;;;11.45;73.14;101161.56;4142431;28;20097;-63
2022/11/02 02:42:21;;;;;;;9.40;3.17;;;;;;;11.43;73.51;101155.41;4122481;28;20050;-63
2022/11/02 02:44:30;;;;;;;6.57;2.42;;;;;;;11.47;72.81;101152.03;4147374;28;20053;-63
2022/11/02 02:46:39;;;;;;;6.25;2.47;;;;;;;11.33;72.63;101161.25;4145418;28;20124;-63
2022/11/02 02:48:47;;;;;;;9.57;3.05;;;;;;;11.31;73.71;101155.16;4145271;28;20539;-63
2022/11/02 02:50:52;;;;;;;8.75;3.15;;;;;;;11.41;73.36;101159.72;4137321;28;20041;-63
2022/11/02 02:52:59;;;;;;;8.65;2.90;;;;;;;11.25;73.31;101160.22;4129690;28;20039;-63
2022/11/02 02:55:05;;;;;;;7.85;2.83;;;;;;;11.20;73.42;101159.22;4160589;28;20061;-63
2022/11/02 02:57:11;;;;;;;10.82;3.28;;;;;;;11.29;73.62;101151.66;4123997;28;20136;-64
2022/11/02 02:59:21;;;;;;;7.80;2.88;;;;;;;11.29;73.34;101152.53;4129201;28;20046;-63
2022/11/02 03:01:27;;;;;;;18.30;3.92;;;;;;;11.42;73.26;101152.78;4154371;28;20030;-63
2022/11/02 03:03:33;;;;;;;10.55;2.83;;;;;;;11.33;73.37;101143.94;4136150;28;20040;-63
2022/11/02 03:05:37;;;;;;;9.23;3.80;;;;;;;11.37;73.16;101144.88;4169779;28;20041;-62
2022/11/02 03:07:45;;;;;;;11.90;2.80;;;;;;;11.42;72.81;101150.16;4142282;28;20096;-63
2022/11/02 03:09:53;;;;;;;12.68;3.78;;;;;;;11.48;72.22;101139.91;4152995;28;20045;-63
2022/11/02 03:12:04;;;;;;;15.10;3.42;;;;;;;11.41;72.71;101141.50;4153640;28;20635;-63
2022/11/02 03:14:22;;;;;;;10.15;2.90;;;;;;;11.45;72.61;101145.94;4125891;28;20388;-63
2022/11/02 03:16:38;;;;;;;10.48;3.17;;;;;;;11.49;72.43;101144.25;4145272;28;20133;-63
2022/11/02 03:18:48;;;;;;;9.05;3.33;;;;;;;11.42;72.70;101142.38;4144205;28;20210;-62
2022/11/02 03:21:03;;;;;;;9.75;3.53;;;;;;;11.40;72.86;101139.72;4154032;28;20475;-62
2022/11/02 03:23:12;;;;;;;6.47;2.83;;;;;;;11.30;72.83;101145.59;4154716;28;20041;-63
2022/11/02 03:25:21;;;;;;;11.52;3.58;;;;;;;11.27;73.14;101141.22;4129491;28;20069;-63
2022/11/02 03:27:34;;;;;;;12.18;3.20;;;;;;;11.30;73.71;101138.66;4148497;28;20061;-63
2022/11/02 03:29:47;;;;;;;8.57;2.40;;;;;;;11.40;72.91;101144.94;4145626;28;20042;-62
2022/11/02 03:31:56;;;;;;;9.90;3.08;;;;;;;11.42;72.87;101144.97;4150134;28;20033;-63
2022/11/02 03:34:08;;;;;;;12.00;3.13;;;;;;;11.44;72.59;101148.50;4142876;28;20054;-63
2022/11/02 03:36:17;;;;;;;13.77;3.78;;;;;;;11.42;73.10;101145.88;4144170;28;20042;-62
2022/11/02 03:38:25;;;;;;;9.75;2.90;;;;;;;11.31;73.03;101144.75;4144183;28;20042;-62
2022/11/02 03:40:32;;;;;;;13.05;2.80;;;;;;;11.31;73.66;101147.34;4162710;28;20518;-63
2022/11/02 03:42:36;;;;;;;13.20;2.75;;;;;;;11.33;73.78;101130.94;4161393;28;20029;-63
2022/11/02 03:44:41;;;;;;;11.77;3.25;;;;;;;11.42;73.26;101138.06;4147647;28;20120;-63
2022/11/02 03:46:49;;;;;;;12.15;2.83;;;;;;;11.43;73.38;101139.78;4131032;28;20142;-63
2022/11/02 03:48:55;;;;;;;9.65;2.75;;;;;;;11.45;73.08;101143.31;4147872;28;20033;-63
2022/11/02 03:51:01;;;;;;;9.85;3.03;;;;;;;11.44;73.23;101156.31;4150121;28;20045;-62
2022/11/02 03:53:09;;;;;;;8.00;2.63;;;;;;;11.45;73.05;101164.16;4165027;28;20442;-63
2022/11/02 03:55:19;;;;;;;16.40;2.97;;;;;;;11.50;73.12;101162.50;4146908;28;20034;-63
2022/11/02 03:57:26;;;;;;;13.07;2.85;;;;;;;11.58;72.21;101169.63;4144084;28;20743;-62
2022/11/02 03:59:31;;;;;;;7.32;2.47;;;;;;;11.43;72.73;101176.25;4147788;28;20040;-63
2022/11/02 04:01:39;;;;;;;10.55;3.10;;;;;;;11.56;72.13;101171.31;4153713;28;20525;-63
2022/11/02 04:03:45;;;;;;;8.98;2.85;;;;;;;11.55;72.61;101177.38;4160813;28;20095;-63
2022/11/02 04:05:49;;;;;;;9.57;2.85;;;;;;;11.56;72.46;101186.94;4130303;28;20046;-63
2022/11/02 04:10:22;;;;;;;12.60;2.90;;;;;;;11.37;72.98;101191.72;4143117;28;20099;-63
2022/11/02 04:14:46;;;;;;;11.02;2.97;;;;;;;11.53;73.13;101199.06;4175643;28;20095;-63
2022/11/02 04:19:26;;;;;;;7.32;2.20;;;;;;;11.47;72.91;101213.66;4138267;28;20058;-63
2022/11/02 04:19:30;;;;;;;10.73;2.72;;;;;;;11.58;72.71;101200.88;4133431;28;20093;-63
2022/11/02 04:25:14;;;;;;;7.65;2.47;;;;;;;11.55;73.27;101211.22;4147675;28;20492;-63
2022/11/02 04:26:26;;;;;;;11.02;2.95;;;;;;;11.58;73.16;101219.09;4143611;28;20124;-63
2022/11/02 04:28:28;;;;;;;7.40;1.98;;;;;;;11.55;73.36;101213.81;4146387;28;20100;-63
2022/11/02 04:30:35;;;;;;;10.25;2.63;;;;;;;11.63;73.37;101217.50;4143296;28;20033;-62
2022/11/02 04:35:00;;;;;;;10.88;2.60;;;;;;;11.72;72.99;101225.50;4139547;28;20069;-63
2022/11/02 04:38:39;;;;;;;9.98;2.45;;;;;;;11.72;73.05;101215.06;4146751;28;20037;-63
2022/11/02 04:39:27;;;;;;;18.45;3.92;;;;;;;11.71;72.68;101223.75;4141896;28;20073;-62
2022/11/02 04:41:41;;;;;;;5.32;2.13;;;;;;;11.74;72.46;101225.53;4152471;28;20057;-62
2022/11/02 04:43:58;;;;;;;9.55;2.85;;;;;;;11.67;72.48;101222.78;4130394;28;20046;-62
2022/11/02 04:46:01;;;;;;;9.43;2.80;;;;;;;11.72;72.34;101216.81;4144165;28;20042;-62
2022/11/02 04:48:06;;;;;;;8.63;2.10;;;;;;;11.69;72.32;101218.47;4130887;28;20046;-62
2022/11/02 04:50:11;;;;;;;8.32;2.08;;;;;;;11.63;72.62;101220.97;4142872;28;20397;-62
2022/11/02 04:52:20;;;;;;;9.18;2.63;;;;;;;11.63;73.11;101230.50;4156397;28;20491;-62
2022/11/02 04:54:25;;;;;;;7.43;2.42;;;;;;;11.49;73.18;101233.69;4145407;28;20050;-62
2022/11/02 04:56:33;;;;;;;10.20;2.53;;;;;;;11.55;72.59;101239.84;4144449;28;20045;-62
2022/11/02 04:58:36;;;;;;;7.25;2.25;;;;;;;11.62;72.68;101229.63;4128676;28;20038;-62
2022/11/02 05:00:39;;;;;;;8.70;2.88;;;;;;;11.68;73.05;101234.97;4153813;28;20041;-62
2022/11/02 05:02:45;;;;;;;11.68;2.10;;;;;;;11.71;72.21;101234.16;4164330;28;20048;-62
2022/11/02 05:04:49;;;;;;;5.63;2.38;;;;;;;11.73;72.67;101240.28;4147597;28;20416;-62
2022/11/02 05:06:52;;;;;;;12.27;2.65;;;;;;;11.77;72.73;101238.59;4130038;28;20042;-63
2022/11/02 05:09:04;;;;;;;8.73;2.42;;;;;;;11.80;72.61;101234.38;4143082;28;20045;-65
2022/11/02 05:11:09;;;;;;;7.88;2.38;;;;;;;11.83;72.53;101229.22;4145412;28;20069;-63
2022/11/02 05:13:12;;;;;;;6.90;2.20;;;;;;;11.86;72.65;101228.41;4149707;28;20494;-63
2022/11/02 05:15:15;;;;;;;8.50;2.13;;;;;;;11.88;72.55;101232.81;4149375;28;20190;-65
2022/11/02 05:17:18;;;;;;;8.80;2.00;;;;;;;11.89;72.71;101241.50;4146152;28;20124;-63
2022/11/02 05:19:21;;;;;;;8.60;2.42;;;;;;;11.77;72.92;101249.03;4143470;28;20124;-63
2022/11/02 05:21:24;;;;;;;13.60;2.35;;;;;;;11.74;72.32;101242.06;4164220;28;20048;-63
2022/11/02 05:23:29;;;;;;;7.95;2.10;;;;;;;11.83;72.35;101244.84;4152996;28;20044;-63
2022/11/02 05:25:35;;;;;;;;;;;;;;;11.67;72.34;101241.03;4126700;28;20077;-63
2022/11/02 05:27:38;;;;;;;9.18;2.00;;;;;;;11.62;72.48;101244.38;4158291;28;19921;-63
2022/11/02 05:29:42;;;;;;;11.77;2.75;;;;;;;11.59;73.02;101252.13;4129136;28;20046;-63
2022/11/02 05:31:45;;;;;;;7.75;2.33;;;;;;;11.67;72.51;101253.19;4142342;28;20053;-63
2022/11/02 05:33:48;;;;;;;10.30;2.85;;;;;;;11.68;72.99;101255.81;4169348;28;20124;-63
2022/11/02 05:35:55;;;;;;;9.77;2.45;;;;;;;11.69;72.98;101246.25;4154643;28;20061;-63
2022/11/02 05:37:58;;;;;;;9.48;1.95;;;;;;;11.67;72.42;101255.78;4162124;28;20100;-63
2022/11/02 05:40:01;;;;;;;8.27;2.00;;;;;;;11.67;73.13;101253.19;4137912;28;20400;-63
2022/11/02 05:42:05;;;;;;;8.30;1.98;;;;;;;11.65;73.07;101254.84;4149607;28;20038;-63
2022/11/02 05:44:08;;;;;;;6.50;2.42;;;;;;;11.65;73.07;101250.53;4154802;28;20518;-63
2022/11/02 05:46:14;;;;;;;11.10;2.78;;;;;;;11.62;73.33;101249.56;4147940;28;20030;-63
2022/11/02 05:48:17;;;;;;;8.55;2.40;;;;;;;11.64;72.91;101253.13;4144724;28;20037;-63
2022/11/02 05:50:20;;;;;;;11.93;3.08;;;;;;;11.61;72.86;101253.00;4156188;28;20503;-63
2022/11/02 05:52:23;;;;;;;5.47;2.08;;;;;;;11.56;72.98;101257.25;4144170;28;20049;-63
2022/11/02 05:54:26;;;;;;;8.52;1.90;;;;;;;11.62;73.22;101254.78;4147350;28;20068;-63
2022/11/02 05:56:28;;;;;;;9.00;3.05;;;;;;;11.60;73.24;101257.34;4141253;28;20049;-63
2022/11/02 05:58:33;;;;;;;8.98;2.45;;;;;;;11.57;73.41;101249.47;4151209;28;20499;-63
2022/11/02 06:00:36;;;;;;;9.45;2.38;;;;;;;11.56;73.44;101260.72;4156475;28;20046;-62
2022/11/02 06:02:39;;;;;;;6.47;2.15;;;;;;;11.57;73.29;101256.41;4153393;28;20030;-61
2022/11/02 06:04:42;;;;;;;11.50;2.50;;;;;;;11.60;73.37;101261.69;4149739;28;20088;-62
2022/11/02 06:06:45;;;;;;;11.20;2.47;;;;;;;11.55;73.36;101273.72;4144365;28;20559;-62
2022/11/02 06:08:49;;;;;;;6.60;1.98;;;;;;;11.57;73.32;101272.91;4147007;28;20125;-62
2022/11/02 06:10:52;;;;;;;11.80;2.50;;;;;;;11.54;73.60;101280.66;4138051;28;20092;-64
2022/11/02 06:12:56;;;;;;;6.15;2.67;;;;;;;11.50;73.70;101281.41;4145256;28;20118;-63
2022/11/02 06:15:00;;;;;;;10.82;2.20;;;;;;;11.45;73.48;101286.53;4144221;28;20073;-63
2022/11/02 06:17:03;;;;;;;9.23;2.50;;;;;;;11.47;73.96;101286.56;4142095;28;20571;-63
2022/11/02 06:19:06;;;;;;;10.18;2.25;;;;;;;11.49;73.73;101284.84;4150846;28;20041;-63
2022/11/02 06:21:09;;;;;;;6.30;2.40;;;;;;;11.42;73.54;101291.66;4144791;28;20124;-63
2022/11/02 06:23:16;;;;;;;10.73;2.50;;;;;;;11.38;74.11;101296.75;4147824;28;20029;-64
2022/11/02 06:25:19;;;;;;;9.73;2.70;;;;;;;11.38;73.97;101289.81;4141764;28;20093;-64
2022/11/02 06:27:22;;;;;;;8.52;2.33;;;;;;;11.43;73.85;101290.81;4142278;28;20121;-63
2022/11/02 06:29:25;;;;;;;10.85;2.03;;;;;;;11.49;74.38;101300.47;4138317;28;20057;-63
2022/11/02 06:31:29;;;;;;;7.95;2.65;;;;;;;11.53;74.36;101295.41;4146451;28;20098;-64
2022/11/02 06:33:32;;;;;;;7.40;2.33;;;;;;;11.56;73.92;101297.19;4136341;28;20559;-63
2022/11/02 06:35:35;;;;;;;8.23;2.20;;;;;;;11.65;73.80;101297.41;4149554;28;20108;-63
2022/11/02 06:37:38;;;;;;;9.05;2.28;;;;;;;11.67;73.31;101295.72;4155280;28;20041;-63
2022/11/02 06:39:41;;;;;;;10.05;2.15;;;;;;;11.68;73.22;101307.00;4154571;28;20045;-63
2022/11/02 06:41:43;;;;;;;8.02;1.90;;;;;;;11.65;73.11;101313.06;4142276;28;20072;-64
2022/11/02 06:43:46;;;;;;;6.72;1.90;;;;;;;11.67;73.64;101316.56;4146911;28;20129;-63
2022/11/02 06:45:49;;;;;;;7.30;2.05;;;;;;;11.70;72.69;101315.75;4144049;28;20042;-63
2022/11/02 06:47:54;;;;;;;9.73;2.30;;;;;;;11.72;73.08;101319.25;4147204;28;20033;-63
2022/11/02 06:49:56;;;;;;;8.45;2.35;;;;;;;11.72;73.01;101327.06;4144868;28;20097;-63
2022/11/02 06:51:59;;;;;;;4.35;1.60;;;;;;;11.75;72.74;101337.56;4140134;28;20109;-62
2022/11/02 06:54:03;;;;;;;6.53;1.95;;;;;;;11.74;72.89;101335.81;4140608;28;20320;-62
2022/11/02 06:56:13;;;;;;;9.88;3.67;;;;;;;11.73;72.90;101341.00;4139632;28;20038;-62
2022/11/02 06:58:16;;;;;;;7.93;2.60;;;;;;;11.69;73.17;101351.31;4157016;28;20466;-62
2022/11/02 07:00:20;;;;;;;11.05;2.65;;;;;;;11.70;72.95;101352.22;4142926;28;20454;-63
2022/11/02 07:02:25;;;;;;;12.25;2.33;;;;;;;11.69;73.31;101360.88;4141666;28;20404;-65
2022/11/02 07:04:30;;;;;;;9.30;2.42;;;;;;;11.69;73.34;101356.53;4141740;28;20039;-62
2022/11/02 07:06:33;;;;;;;13.85;2.65;;;;;;;11.61;73.32;101358.09;4138949;28;20042;-62
2022/11/02 07:08:36;;;;;;;11.38;2.20;;;;;;;11.58;73.96;101362.31;4141940;28;20068;-62
2022/11/02 07:10:40;;;;;;;8.88;2.13;;;;;;;11.57;73.97;101365.78;4143507;28;20097;-62
2022/11/02 07:12:43;;;;;;;6.93;2.50;;;;;;;11.49;74.38;101365.59;4157735;28;20462;-62
2022/11/02 07:14:45;;;;;;;10.27;2.40;;;;;;;11.48;74.20;101369.91;4159184;28;20056;-63
2022/11/02 07:16:48;;;;;;;9.90;2.42;;;;;;;11.48;74.02;101377.72;4139010;28;20093;-63
2022/11/02 07:18:51;;;;;;;12.50;1.98;;;;;;;11.48;74.12;101380.34;4161497;28;20033;-62
2022/11/02 07:20:58;;;;;;;7.93;2.50;;;;;;;11.46;74.36;101382.03;4140529;28;20042;-63
2022/11/02 07:23:02;;;;;;;7.35;2.17;;;;;;;11.45;74.88;101380.25;4142382;28;20034;-63
2022/11/02 07:25:07;;;;;;;12.20;2.72;;;;;;;11.42;75.00;101393.22;4142319;28;20046;-63
2022/11/02 07:27:10;;;;;;;15.43;3.20;;;;;;;11.40;75.29;101400.06;4139969;28;20129;-62
2022/11/02 07:29:13;;;;;;;16.40;2.95;;;;;;;11.41;74.97;101399.25;4143877;28;20037;-63
2022/11/02 07:31:15;;;;;;;16.38;3.88;;;;;;;11.40;74.61;101402.69;4156364;28;20518;-63
2022/11/02 07:33:19;;;;;;;10.57;3.03;;;;;;;11.44;74.32;101394.13;4153530;28;20057;-63
2022/11/02 07:35:22;;;;;;;16.10;3.72;;;;;;;11.39;74.53;101398.34;4147416;28;20038;-63
2022/11/02 07:37:26;;;;;;;12.07;2.78;;;;;;;11.43;74.37;101404.50;4149956;28;20037;-63
2022/11/02 07:39:29;;;;;;;12.90;2.95;;;;;;;11.36;74.56;101408.69;4149549;28;20041;-63
2022/11/02 07:41:32;;;;;;;16.23;3.92;;;;;;;11.35;73.91;101394.75;4150282;28;20042;-63
2022/11/02 07:43:34;;;;;;;15.45;4.55;;;;;;;11.43;73.67;101400.16;4149886;28;20088;-63
2022/11/02 07:46:02;;;;;;;15.52;3.75;;;;;;;11.43;74.40;101394.06;4147704;28;20042;-63
2022/11/02 07:48:05;;;;;;;9.30;2.40;;;;;;;11.47;73.78;101394.19;4148476;28;20076;-63
2022/11/02 07:50:08;;;;;;;17.92;3.42;;;;;;;11.53;73.41;101402.19;4149405;28;20046;-64
2022/11/02 07:52:10;;;;;;;14.38;2.90;;;;;;;11.54;73.68;101403.06;4150053;28;20519;-64
2022/11/02 07:54:14;;;;;;;20.88;3.72;;;;;;;11.56;73.54;101408.28;4148364;28;20050;-63
2022/11/02 07:56:17;;;;;;;17.45;3.30;;;;;;;11.60;73.66;101412.75;4148959;28;20037;-63
2022/11/02 07:58:20;;;;;;;25.27;3.72;;;;;;;11.63;72.96;101416.28;4148754;28;20041;-64
2022/11/02 08:00:24;;;;;;;16.27;2.83;;;;;;;11.68;72.97;101425.13;4148553;28;20583;-63
2022/11/02 08:02:27;;;;;;;11.82;2.53;;;;;;;11.73;72.66;101427.84;4148627;28;20084;-64
2022/11/02 08:04:30;;;;;;;13.15;2.58;;;;;;;11.83;72.42;101426.34;4148294;28;20125;-63
2022/11/02 08:06:34;;;;;;;11.05;2.88;;;;;;;11.86;71.79;101429.91;4146428;28;20049;-63
2022/11/02 08:08:37;;;;;;;13.32;3.97;;;;;;;11.94;71.15;101431.84;4147935;28;20132;-64
2022/11/02 08:10:42;;;;;;;11.05;2.08;;;;;;;11.99;71.11;101443.28;4149120;28;20404;-63
2022/11/02 08:12:45;;;;;;;14.25;2.58;;;;;;;12.01;71.03;101441.56;4148647;28;20065;-64
2022/11/02 08:14:48;;;;;;;10.10;2.38;;;;;;;12.13;70.54;101444.47;4148515;28;20030;-63
2022/11/02 08:16:51;;;;;;;14.13;2.78;;;;;;;12.18;70.25;101440.25;4149263;28;20480;-63
2022/11/02 08:18:54;;;;;;;11.75;2.97;;;;;;;12.25;70.18;101438.69;4149913;28;20125;-63
2022/11/02 08:20:58;;;;;;;10.90;2.58;;;;;;;12.31;69.85;101441.41;4148505;28;20048;-63
2022/11/02 08:23:01;;;;;;;14.75;2.78;;;;;;;12.37;69.81;101448.50;4147515;28;20042;-63
2022/11/02 08:25:06;;;;;;;10.85;2.70;;;;;;;12.44;69.22;101449.50;4163198;28;20068;-63
2022/11/02 08:27:10;;;;;;;10.55;2.08;;;;;;;12.45;69.32;101452.16;4151541;28;20141;-63
2022/11/02 08:29:13;;;;;;;19.88;2.60;;;;;;;12.49;68.94;101453.13;4153489;28;20642;-63
2022/11/02 08:31:17;;;;;;;12.27;2.97;;;;;;;12.51;69.18;101452.31;4147373;28;20501;-63
2022/11/02 08:33:20;;;;;;;10.63;2.30;;;;;;;12.55;68.93;101455.84;4149015;28;20049;-63
2022/11/02 08:35:23;;;;;;;10.27;2.33;;;;;;;12.61;69.24;101444.69;4148047;28;20096;-63
2022/11/02 08:37:26;;;;;;;12.65;2.30;;;;;;;12.64;68.96;101447.34;4149206;28;20500;-63
2022/11/02 08:39:29;;;;;;;13.63;2.30;;;;;;;12.69;68.43;101454.44;4149456;28;20042;-63
2022/11/02 08:41:32;;;;;;;18.35;3.10;;;;;;;12.71;68.42;101457.06;4146966;28;20038;-63
2022/11/02 08:43:36;;;;;;;12.85;2.45;;;;;;;12.70;68.74;101455.28;4148206;28;20048;-63
2022/11/02 08:45:40;;;;;;;17.58;2.95;;;;;;;12.77;68.40;101451.97;4149293;28;20042;-63
2022/11/02 08:48:03;;;;;;;14.75;3.75;;;;;;;12.78;68.00;101458.97;4147657;28;20061;-64
2022/11/02 08:50:07;;;;;;;11.90;2.55;;;;;;;12.82;67.83;101457.28;4146132;28;20068;-63
2022/11/02 08:52:10;;;;;;;14.48;2.35;;;;;;;12.88;67.72;101455.69;4148986;28;20042;-63
2022/11/02 08:54:13;;;;;;;13.57;3.13;;;;;;;12.95;67.67;101455.81;4148704;28;20045;-63
2022/11/02 08:56:16;;;;;;;15.88;2.78;;;;;;;12.98;67.14;101461.09;4148325;28;20041;-63
2022/11/02 08:58:19;;;;;;;10.30;2.40;;;;;;;12.99;66.54;101452.41;4149033;28;20408;-64
2022/11/02 09:00:25;;;;;;;16.30;2.92;;;;;;;13.06;66.87;101463.00;4147056;28;20038;-63
2022/11/02 09:02:28;;;;;;;9.65;2.75;;;;;;;13.12;66.72;101459.66;4148731;28;20045;-63
2022/11/02 09:04:31;;;;;;;20.48;3.28;;;;;;;13.19;67.03;101464.13;4148535;28;20141;-63
2022/11/02 09:06:34;;;;;;;11.98;2.53;;;;;;;13.25;66.93;101458.16;4148896;28;20045;-63
2022/11/02 09:08:37;;;;;;;12.57;2.72;;;;;;;13.29;66.47;101462.59;4131428;28;20046;-63
2022/11/02 09:10:40;;;;;;;14.52;2.85;;;;;;;13.37;66.94;101460.16;4145362;28;20037;-63
2022/11/02 09:12:43;;;;;;;14.77;3.15;;;;;;;13.37;66.62;101465.38;4148159;28;20033;-63
2022/11/02 09:14:46;;;;;;;24.27;4.35;;;;;;;13.36;65.76;101468.84;4148323;28;20088;-63
2022/11/02 09:16:50;;;;;;;17.60;3.00;;;;;;;13.43;66.02;101470.72;4147812;28;20044;-63
2022/11/02 09:18:53;;;;;;;16.77;3.35;;;;;;;13.46;65.32;101462.94;4147375;28;20042;-63
2022/11/02 09:20:56;;;;;;;8.57;2.55;;;;;;;13.51;63.52;101457.81;4147471;28;20403;-63
2022/11/02 09:22:59;;;;;;;8.40;2.78;;;;;;;13.55;63.28;101457.00;4148405;28;20057;-63
2022/11/02 09:25:02;;;;;;;12.98;2.85;;;;;;;13.60;61.66;101463.19;4147648;28;20037;-63
2022/11/02 09:27:04;;;;;;;13.52;2.65;;;;;;;13.67;61.02;101464.16;4147697;28;20153;-63
2022/11/02 09:29:07;;;;;;;10.77;2.10;;;;;;;13.76;60.44;101451.28;4130990;28;20093;-63
2022/11/02 09:31:10;;;;;;;13.15;2.85;;;;;;;13.83;60.38;101452.25;4146981;28;20045;-63
2022/11/02 09:33:15;;;;;;;14.18;3.30;;;;;;;13.96;60.02;101468.16;4152318;28;20071;-63
2022/11/02 09:35:18;;;;;;;6.55;2.55;;;;;;;14.02;60.66;101464.78;4148400;28;20034;-63
2022/11/02 09:37:21;;;;;;;8.95;2.28;;;;;;;14.05;60.30;101445.66;4161860;28;20083;-64
2022/11/02 09:39:23;;;;;;;13.45;2.03;;;;;;;14.10;59.83;101460.53;4147753;28;20100;-63
2022/11/02 09:41:34;;;;;;;13.10;3.10;;;;;;;14.17;58.90;101458.91;4147140;28;20419;-63
2022/11/02 09:43:45;;;;;;;10.48;2.28;;;;;;;14.15;58.32;101447.56;4148084;28;20038;-63
2022/11/02 09:45:55;;;;;;;11.85;2.67;;;;;;;14.24;58.29;101462.50;4148310;28;20289;-63
2022/11/02 09:48:03;;;;;;;13.13;2.47;;;;;;;14.25;57.56;101456.41;4147562;28;20132;-63
2022/11/02 09:50:38;;;;;;;11.10;3.05;;;;;;;14.37;58.08;101461.84;4147594;28;20037;-63